createdAt,value
2018-07-14T00:01:07.285Z,5.10
2018-07-14T00:03:35.756Z,5.87
2018-07-14T00:06:04.514Z,6.03
2018-07-14T00:08:32.903Z,5.50
2018-07-14T00:11:01.375Z,5.27
2018-07-14T00:13:30.104Z,5.40
2018-07-14T00:15:58.875Z,5.60
2018-07-14T00:18:27.251Z,6.03
2018-07-14T00:20:55.702Z,5.90
2018-07-14T00:23:24.792Z,5.00
2018-07-14T00:25:58.660Z,5.50
2018-07-14T00:28:27.121Z,5.27
2018-07-14T00:30:56.777Z,5.43
2018-07-14T00:33:25.865Z,5.30
2018-07-14T00:35:55.083Z,5.70
2018-07-14T00:38:23.825Z,5.50
2018-07-14T00:40:52.282Z,6.63
2018-07-14T00:43:20.696Z,6.00
2018-07-14T00:45:49.559Z,6.10
2018-07-14T00:48:18.030Z,7.17
2018-07-14T00:50:46.448Z,7.10
2018-07-14T00:53:14.797Z,7.07
2018-07-14T00:55:43.341Z,6.80
2018-07-14T00:58:11.731Z,7.27
2018-07-14T01:00:41.167Z,7.60
2018-07-14T01:03:09.580Z,7.00
2018-07-14T01:05:38.063Z,6.60
2018-07-14T01:08:06.591Z,8.10
2018-07-14T01:10:35.998Z,7.70
2018-07-14T01:13:04.779Z,7.63
2018-07-14T01:15:33.232Z,6.67
2018-07-14T01:18:01.566Z,6.63
2018-07-14T01:20:31.132Z,6.13
2018-07-14T01:22:59.871Z,5.43
2018-07-14T01:25:28.725Z,5.83
2018-07-14T01:27:57.198Z,5.97
2018-07-14T01:30:25.867Z,5.90
2018-07-14T01:32:54.997Z,5.90
2018-07-14T01:35:23.868Z,6.07
2018-07-14T01:37:52.235Z,6.70
2018-07-14T01:40:20.780Z,7.10
2018-07-14T01:42:49.186Z,6.37
2018-07-14T01:45:18.056Z,6.47
2018-07-14T01:47:46.498Z,6.37
2018-07-14T01:50:15.021Z,6.43
2018-07-14T01:52:43.468Z,6.27
2018-07-14T01:55:11.980Z,6.70
2018-07-14T01:57:40.305Z,6.67
2018-07-14T02:00:08.835Z,6.70
2018-07-14T02:02:37.248Z,6.70
2018-07-14T02:05:05.865Z,6.27
2018-07-14T02:07:34.601Z,6.30
2018-07-14T02:10:02.952Z,6.30
2018-07-14T02:12:31.318Z,6.30
2018-07-14T02:14:59.866Z,6.20
2018-07-14T02:17:28.309Z,6.03
2018-07-14T02:19:56.756Z,5.90
2018-07-14T02:22:25.488Z,6.20
2018-07-14T02:24:53.590Z,5.93
2018-07-14T02:27:22.031Z,6.23
2018-07-14T02:29:50.494Z,5.90
2018-07-14T02:32:18.896Z,6.97
2018-07-14T02:34:47.395Z,6.57
2018-07-14T02:37:15.805Z,6.30
2018-07-14T02:39:44.615Z,6.30
2018-07-14T02:42:13.179Z,6.17
2018-07-14T02:44:41.725Z,6.87
2018-07-14T02:47:10.143Z,7.70
2018-07-14T02:49:38.631Z,7.23
2018-07-14T02:52:07.074Z,7.20
2018-07-14T02:54:35.532Z,7.07
2018-07-14T02:57:03.577Z,6.97
2018-07-14T02:59:32.108Z,6.67
2018-07-14T03:02:00.504Z,6.30
2018-07-14T03:04:28.927Z,6.20
2018-07-14T03:06:57.410Z,6.73
2018-07-14T03:09:25.942Z,6.97
2018-07-14T03:11:54.325Z,7.10
2018-07-14T03:14:22.710Z,7.17
2018-07-14T03:16:51.684Z,8.00
2018-07-14T03:19:20.278Z,7.13
2018-07-14T03:21:48.896Z,7.50
2018-07-14T03:24:17.381Z,6.67
2018-07-14T03:26:45.737Z,6.40
2018-07-14T03:29:14.188Z,6.23
2018-07-14T03:31:43.204Z,6.17
2018-07-14T03:34:11.677Z,6.60
2018-07-14T03:36:40.088Z,6.13
2018-07-14T03:39:08.671Z,6.30
2018-07-14T03:41:37.190Z,6.10
2018-07-14T03:44:05.623Z,5.97
2018-07-14T03:46:34.018Z,6.30
2018-07-14T03:49:02.505Z,6.77
2018-07-14T03:51:30.875Z,7.20
2018-07-14T03:53:59.423Z,7.30
2018-07-14T03:56:28.135Z,6.93
2018-07-14T03:58:56.581Z,6.47
2018-07-14T04:01:24.997Z,7.33
2018-07-14T04:03:54.336Z,6.70
2018-07-14T04:06:23.114Z,6.87
2018-07-14T04:08:51.830Z,6.33
2018-07-14T04:11:20.299Z,6.77
2018-07-14T04:13:48.725Z,6.27
2018-07-14T04:16:17.092Z,6.70
2018-07-14T04:18:45.535Z,5.67
2018-07-14T04:21:14.341Z,5.90
2018-07-14T04:23:43.302Z,5.70
2018-07-14T04:26:11.758Z,7.10
2018-07-14T04:28:40.428Z,7.07
2018-07-14T04:31:08.870Z,6.57
2018-07-14T04:33:37.302Z,7.10
2018-07-14T04:36:05.835Z,6.30
2018-07-14T04:38:34.459Z,6.13
2018-07-14T04:41:02.896Z,7.57
2018-07-14T04:43:31.378Z,6.57
2018-07-14T04:45:59.462Z,6.50
2018-07-14T04:48:27.983Z,6.73
2018-07-14T04:50:56.773Z,6.60
2018-07-14T04:53:25.544Z,6.43
2018-07-14T04:55:53.991Z,5.97
2018-07-14T04:58:22.115Z,6.17
2018-07-14T05:00:50.523Z,5.97
2018-07-14T05:03:18.913Z,6.27
2018-07-14T05:05:47.416Z,6.17
2018-07-14T05:08:16.019Z,6.37
2018-07-14T05:10:45.183Z,6.40
2018-07-14T05:13:14.198Z,5.90
2018-07-14T05:15:43.296Z,6.30
2018-07-14T05:18:11.878Z,6.63
2018-07-14T05:20:40.340Z,6.13
2018-07-14T05:23:08.839Z,5.43
2018-07-14T05:25:37.220Z,5.90
2018-07-14T05:28:06.214Z,5.70
2018-07-14T05:30:34.677Z,5.60
2018-07-14T05:33:03.039Z,6.20
2018-07-14T05:35:31.449Z,6.40
2018-07-14T05:37:59.859Z,5.70
2018-07-14T05:40:29.345Z,6.73
2018-07-14T05:42:58.094Z,8.33
2018-07-14T05:45:26.991Z,9.70
2018-07-14T05:47:55.437Z,8.63
2018-07-14T05:50:24.311Z,8.13
2018-07-14T05:52:52.699Z,7.93
2018-07-14T05:55:21.212Z,7.50
2018-07-14T05:57:49.599Z,7.63
2018-07-14T06:00:18.470Z,7.20
2018-07-14T06:02:46.897Z,7.27
2018-07-14T06:05:15.604Z,6.47
2018-07-14T06:07:44.444Z,6.80
2018-07-14T06:10:13.479Z,6.77
2018-07-14T06:12:41.853Z,6.47
2018-07-14T06:15:10.434Z,7.10
2018-07-14T06:17:38.864Z,7.10
2018-07-14T06:20:08.612Z,6.73
2018-07-14T06:22:37.017Z,8.23
2018-07-14T06:25:05.856Z,7.27
2018-07-14T06:27:34.186Z,8.70
2018-07-14T06:30:02.666Z,8.17
2018-07-14T06:32:31.036Z,9.53
2018-07-14T06:34:59.916Z,8.07
2018-07-14T06:37:28.303Z,8.67
2018-07-14T06:39:56.782Z,8.50
2018-07-14T06:42:25.197Z,8.63
2018-07-14T06:44:53.753Z,9.03
2018-07-14T06:47:22.444Z,8.60
2018-07-14T06:49:50.937Z,8.50
2018-07-14T06:52:19.411Z,9.70
2018-07-14T06:54:47.926Z,9.97
2018-07-14T06:57:16.328Z,9.30
2018-07-14T06:59:45.555Z,15.57
2018-07-14T07:02:14.606Z,17.40
2018-07-14T07:04:43.383Z,15.67
2018-07-14T07:07:11.796Z,16.73
2018-07-14T07:09:40.298Z,17.40
2018-07-14T07:12:08.718Z,16.23
2018-07-14T08:36:35.324Z,6.57
2018-07-14T08:39:04.666Z,6.37
2018-07-14T08:41:33.067Z,6.30
2018-07-14T08:44:01.504Z,6.40
2018-07-14T08:46:30.088Z,7.00
2018-07-14T08:48:58.536Z,6.97
2018-07-14T08:51:27.453Z,7.30
2018-07-14T08:53:56.211Z,6.90
2018-07-14T08:56:24.676Z,6.90
2018-07-14T08:58:53.203Z,6.50
2018-07-14T09:01:21.684Z,6.00
2018-07-14T09:03:50.162Z,6.23
2018-07-14T09:06:18.560Z,6.10
2018-07-14T09:08:47.011Z,5.67
2018-07-14T09:11:15.499Z,6.00
2018-07-14T09:13:44.883Z,6.13
2018-07-14T09:16:13.438Z,6.07
2018-07-14T09:18:41.839Z,5.50
2018-07-14T09:21:10.299Z,5.67
2018-07-14T09:23:38.796Z,6.57
2018-07-14T09:26:07.382Z,6.63
2018-07-14T09:28:35.978Z,7.03
2018-07-14T09:31:04.416Z,6.20
2018-07-14T09:33:32.922Z,6.60
2018-07-14T09:36:01.314Z,6.70
2018-07-14T09:38:29.777Z,6.60
2018-07-14T09:40:58.169Z,6.27
2018-07-14T09:43:26.563Z,6.47
2018-07-14T09:45:54.989Z,6.60
2018-07-14T09:48:23.511Z,5.83
2018-07-14T09:50:51.909Z,6.30
2018-07-14T09:53:20.283Z,6.60
2018-07-14T09:55:48.816Z,6.00
2018-07-14T09:58:17.262Z,5.97
2018-07-14T10:00:51.026Z,6.00
2018-07-14T10:03:19.196Z,5.77
2018-07-14T10:05:47.892Z,5.10
2018-07-14T10:08:16.559Z,4.83
2018-07-14T10:10:45.771Z,4.57
2018-07-14T10:13:14.862Z,4.40
2018-07-14T10:15:43.923Z,4.20
2018-07-14T10:18:12.627Z,4.40
2018-07-14T10:20:42.161Z,4.73
2018-07-14T10:23:10.594Z,4.60
2018-07-14T10:25:39.146Z,4.47
2018-07-14T10:28:07.736Z,4.63
2018-07-14T10:30:37.211Z,4.33
2018-07-14T10:33:05.682Z,5.53
2018-07-14T10:35:34.166Z,5.17
2018-07-14T10:38:02.776Z,5.77
2018-07-14T10:40:32.288Z,6.03
2018-07-14T10:43:00.723Z,6.30
2018-07-14T10:45:29.262Z,6.20
2018-07-14T10:47:57.678Z,5.87
2018-07-14T10:50:27.190Z,5.70
2018-07-14T10:52:55.590Z,5.47
2018-07-14T10:55:24.140Z,5.80
2018-07-14T10:57:52.458Z,5.57
2018-07-14T11:00:21.292Z,5.83
2018-07-14T11:02:49.696Z,6.47
2018-07-14T11:05:18.199Z,6.43
2018-07-14T11:07:46.748Z,6.67
2018-07-14T11:10:15.973Z,6.23
2018-07-14T11:12:45.004Z,5.70
2018-07-14T11:15:13.519Z,5.50
2018-07-14T11:17:41.981Z,5.50
2018-07-14T11:20:10.607Z,5.50
2018-07-14T11:22:38.986Z,5.43
2018-07-14T11:25:07.433Z,5.37
2018-07-14T11:27:35.780Z,5.57
2018-07-14T11:30:04.603Z,6.37
2018-07-14T11:32:33.046Z,5.30
2018-07-14T11:35:01.439Z,4.70
2018-07-14T11:37:29.845Z,5.10
2018-07-14T11:39:58.481Z,5.00
2018-07-14T11:42:27.347Z,5.00
2018-07-14T11:44:55.820Z,4.03
2018-07-14T11:47:24.262Z,4.30
2018-07-14T11:49:52.894Z,4.10
2018-07-14T11:52:21.294Z,4.17
2018-07-14T11:54:49.738Z,4.10
2018-07-14T11:57:18.388Z,4.30
2018-07-14T11:59:46.795Z,4.17
2018-07-14T12:02:15.245Z,4.20
2018-07-14T12:04:43.989Z,4.10
2018-07-14T12:07:12.759Z,4.03
2018-07-14T12:09:41.825Z,4.10
2018-07-14T12:12:10.387Z,5.37
2018-07-14T12:14:38.804Z,4.50
2018-07-14T12:17:07.359Z,4.27
2018-07-14T12:19:35.895Z,4.20
2018-07-14T12:22:04.303Z,4.13
2018-07-14T12:24:32.702Z,3.73
2018-07-14T12:27:01.160Z,3.90
2018-07-14T12:29:29.615Z,3.50
2018-07-14T12:31:58.021Z,3.97
2018-07-14T12:34:26.471Z,3.30
2018-07-14T12:36:54.884Z,2.83
2018-07-14T12:39:23.452Z,2.83
2018-07-14T12:41:52.888Z,2.90
2018-07-14T12:44:21.391Z,2.63
2018-07-14T12:46:49.822Z,2.90
2018-07-14T12:49:18.276Z,3.60
2018-07-14T12:51:46.739Z,3.37
2018-07-14T12:54:15.209Z,3.87
2018-07-14T12:56:43.611Z,3.00
2018-07-14T12:59:12.136Z,3.50
2018-07-14T13:01:40.751Z,3.97
2018-07-14T13:04:09.561Z,3.90
2018-07-14T13:06:38.006Z,4.00
2018-07-14T13:09:06.871Z,3.80
2018-07-14T13:11:35.240Z,4.83
2018-07-14T13:14:03.854Z,4.10
2018-07-14T13:16:32.266Z,4.10
2018-07-14T13:19:00.687Z,3.90
2018-07-14T13:21:29.071Z,4.03
2018-07-14T13:23:57.583Z,3.80
2018-07-14T13:26:26.413Z,3.47
2018-07-14T13:28:54.794Z,3.87
2018-07-14T13:31:23.243Z,3.63
2018-07-14T13:33:51.595Z,3.73
2018-07-14T13:36:20.473Z,3.67
2018-07-14T13:38:51.735Z,4.07
2018-07-14T13:41:18.255Z,4.07
2018-07-14T13:43:46.609Z,4.03
2018-07-14T13:46:15.802Z,4.33
2018-07-14T13:48:44.670Z,4.13
2018-07-14T13:51:13.154Z,3.90
2018-07-14T13:53:41.874Z,4.03
2018-07-14T13:56:10.349Z,3.80
2018-07-14T13:58:38.774Z,3.70
2018-07-14T14:01:07.225Z,3.70
2018-07-14T14:03:36.022Z,4.33
2018-07-14T14:06:04.523Z,4.13
2018-07-14T14:08:33.296Z,4.10
2018-07-14T14:11:01.672Z,3.93
2018-07-14T14:13:30.004Z,4.27
2018-07-14T14:15:58.581Z,3.93
2018-07-14T14:18:27.072Z,4.00
2018-07-14T14:20:55.543Z,4.10
2018-07-14T14:23:23.965Z,3.97
2018-07-14T14:25:52.606Z,3.73
2018-07-14T14:28:20.998Z,3.77
2018-07-14T14:30:49.463Z,3.50
2018-07-14T14:33:17.895Z,3.40
2018-07-14T14:35:46.471Z,3.43
2018-07-14T14:38:15.592Z,3.70
2018-07-14T14:40:46.149Z,3.37
2018-07-14T14:43:14.977Z,3.30
2018-07-14T14:45:44.391Z,3.13
2018-07-14T14:48:12.736Z,3.40
2018-07-14T14:50:42.299Z,3.20
2018-07-14T14:53:10.728Z,3.50
2018-07-14T14:55:39.239Z,3.30
2018-07-14T14:58:08.733Z,3.47
2018-07-14T15:00:38.267Z,3.20
2018-07-14T15:03:06.750Z,3.23
2018-07-14T15:05:35.559Z,3.37
2018-07-14T15:08:03.973Z,3.37
2018-07-14T15:10:33.465Z,4.03
2018-07-14T15:13:01.929Z,3.43
2018-07-14T15:15:30.839Z,3.70
2018-07-14T15:17:59.254Z,3.97
2018-07-14T15:20:28.956Z,4.00
2018-07-14T15:22:57.764Z,3.97
2018-07-14T15:25:26.260Z,3.50
2018-07-14T15:27:54.648Z,3.70
2018-07-14T15:30:24.303Z,3.60
2018-07-14T15:32:52.896Z,3.97
2018-07-14T15:35:21.575Z,3.73
2018-07-14T15:37:50.123Z,4.20
2018-07-14T15:40:18.906Z,4.07
2018-07-14T15:42:47.724Z,4.17
2018-07-14T15:45:16.492Z,4.60
2018-07-14T15:47:45.559Z,4.43
2018-07-14T15:50:14.350Z,4.67
2018-07-14T15:52:42.776Z,4.23
2018-07-14T15:55:11.341Z,4.43
2018-07-14T15:57:40.070Z,4.57
2018-07-14T16:00:08.774Z,5.27
2018-07-14T16:02:37.278Z,5.00
2018-07-14T16:05:06.674Z,4.70
2018-07-14T16:07:35.167Z,5.23
2018-07-14T16:10:03.741Z,5.20
2018-07-14T16:12:32.189Z,4.40
2018-07-14T16:15:01.038Z,5.00
2018-07-14T16:17:29.420Z,4.40
2018-07-14T16:19:58.266Z,5.10
2018-07-14T16:22:26.699Z,5.10
2018-07-14T16:24:55.144Z,5.40
2018-07-14T16:27:23.495Z,5.13
2018-07-14T16:29:51.952Z,5.43
2018-07-14T16:32:20.332Z,5.23
2018-07-14T16:34:48.826Z,5.20
2018-07-14T16:37:17.218Z,4.83
2018-07-14T16:39:46.192Z,5.20
2018-07-14T16:42:15.280Z,5.10
2018-07-14T16:44:44.376Z,4.60
2018-07-14T16:47:12.787Z,4.80
2018-07-14T16:49:41.371Z,5.23
2018-07-14T16:52:09.780Z,5.17
2018-07-14T16:54:38.307Z,5.00
2018-07-14T16:57:06.670Z,5.03
2018-07-14T16:59:35.096Z,5.30
2018-07-14T17:02:03.505Z,5.17
2018-07-14T17:04:32.213Z,5.07
2018-07-14T17:07:00.742Z,4.80
2018-07-14T17:09:29.285Z,5.20
2018-07-14T17:11:57.762Z,5.33
2018-07-14T17:14:26.360Z,5.00
2018-07-14T17:16:54.730Z,5.20
2018-07-14T17:19:23.157Z,5.57
2018-07-14T17:21:51.629Z,5.00
2018-07-14T17:24:20.329Z,5.27
2018-07-14T17:26:48.410Z,5.40
2018-07-14T17:29:16.965Z,5.53
2018-07-14T17:31:45.976Z,5.50
2018-07-14T17:34:14.490Z,5.30
2018-07-14T17:36:43.133Z,5.47
2018-07-14T17:39:11.827Z,5.37
2018-07-14T17:41:42.836Z,5.43
2018-07-14T17:44:11.630Z,5.50
2018-07-14T17:46:40.066Z,5.67
2018-07-14T17:49:08.646Z,5.43
2018-07-14T17:51:37.487Z,5.80
2018-07-14T17:54:06.182Z,6.00
2018-07-14T17:56:34.576Z,5.73
2018-07-14T17:59:03.167Z,5.60
2018-07-14T18:01:31.628Z,6.40
2018-07-14T18:04:00.137Z,5.70
2018-07-14T18:06:28.565Z,5.80
2018-07-14T18:08:57.105Z,6.07
2018-07-14T18:11:25.516Z,6.00
2018-07-14T18:13:54.119Z,6.20
2018-07-14T18:16:22.853Z,6.00
2018-07-14T18:18:51.527Z,6.47
2018-07-14T18:21:19.891Z,6.20
2018-07-14T18:23:48.520Z,6.40
2018-07-14T18:26:17.021Z,6.20
2018-07-14T18:28:46.030Z,6.23
2018-07-14T18:31:14.535Z,6.10
2018-07-14T18:33:43.122Z,6.53
2018-07-14T18:36:11.581Z,6.07
2018-07-14T18:38:40.326Z,6.20
2018-07-14T18:41:08.746Z,6.33
2018-07-14T18:43:37.305Z,6.07
2018-07-14T18:46:05.822Z,5.93
2018-07-14T18:48:34.455Z,5.93
2018-07-14T18:51:03.043Z,6.10
2018-07-14T18:53:31.424Z,5.77
2018-07-14T18:55:59.825Z,5.57
2018-07-14T18:58:28.434Z,6.00
2018-07-14T19:00:56.850Z,6.17
2018-07-14T19:03:25.339Z,5.90
2018-07-14T19:05:53.673Z,6.83
2018-07-14T19:08:22.180Z,6.40
2018-07-14T19:10:50.513Z,6.10
2018-07-14T19:13:19.003Z,6.27
2018-07-14T19:15:47.999Z,6.20
2018-07-14T19:18:16.851Z,6.10
2018-07-14T19:20:45.818Z,6.30
2018-07-14T19:23:14.553Z,6.10
2018-07-14T19:25:42.936Z,6.57
2018-07-14T19:28:11.556Z,6.30
2018-07-14T19:30:39.924Z,6.30
2018-07-14T19:33:08.447Z,6.00
2018-07-14T19:36:40.081Z,6.43
2018-07-14T19:39:08.627Z,6.67
2018-07-14T19:41:37.210Z,6.67
2018-07-14T19:44:05.674Z,6.57
2018-07-14T19:46:34.163Z,9.83
2018-07-14T19:49:02.474Z,6.70
2018-07-14T19:51:31.067Z,7.30
2018-07-14T19:53:59.750Z,6.90
2018-07-14T19:56:28.242Z,6.90
2018-07-14T19:58:56.596Z,6.43
2018-07-14T20:01:25.114Z,7.30
2018-07-14T20:03:53.483Z,6.77
2018-07-14T20:06:22.061Z,6.83
2018-07-14T20:08:50.590Z,6.60
2018-07-14T20:11:19.116Z,6.60
2018-07-14T20:13:47.893Z,7.07
2018-07-14T20:16:16.815Z,7.33
2018-07-14T20:18:45.940Z,6.83
2018-07-14T20:21:14.592Z,6.67
2018-07-14T20:23:42.927Z,6.43
2018-07-14T20:26:11.467Z,6.57
2018-07-14T20:28:39.888Z,7.37
2018-07-14T20:31:08.510Z,6.80
2018-07-14T20:33:36.996Z,6.40
2018-07-14T20:36:05.550Z,7.00
2018-07-14T20:38:33.971Z,6.67
2018-07-14T20:41:02.450Z,6.40
2018-07-14T20:43:30.904Z,6.77
2018-07-14T20:45:59.404Z,6.37
2018-07-14T20:48:27.801Z,6.50
2018-07-14T20:50:56.297Z,6.80
2018-07-14T20:53:24.663Z,5.97
2018-07-14T20:55:53.247Z,6.93
2018-07-14T20:58:21.961Z,6.63
2018-07-14T21:00:50.439Z,6.37
2018-07-14T21:03:18.762Z,6.60
2018-07-14T21:05:47.238Z,6.10
2018-07-14T21:08:15.646Z,6.60
2018-07-14T21:10:46.187Z,6.43
2018-07-14T21:13:15.604Z,6.43
2018-07-14T21:15:44.654Z,6.40
2018-07-14T21:18:13.130Z,6.33
2018-07-14T21:20:42.671Z,6.33
2018-07-14T21:23:11.138Z,6.40
2018-07-14T21:25:39.593Z,6.27
2018-07-14T21:28:08.060Z,6.20
2018-07-14T21:30:37.549Z,6.57
2018-07-14T21:33:06.327Z,6.00
2018-07-14T21:35:35.248Z,6.80
2018-07-14T21:38:03.697Z,6.57
2018-07-14T21:40:32.240Z,6.27
2018-07-14T21:43:00.652Z,6.90
2018-07-14T21:45:29.164Z,6.57
2018-07-14T21:47:57.549Z,6.73
2018-07-14T21:50:26.118Z,6.10
2018-07-14T21:52:54.506Z,6.60
2018-07-14T21:55:23.053Z,6.50
2018-07-14T21:57:51.503Z,6.50
2018-07-14T22:00:28.891Z,6.30
2018-07-14T22:02:57.731Z,6.47
2018-07-14T22:05:26.161Z,6.50
2018-07-14T22:07:58.532Z,6.43
2018-07-14T22:10:27.051Z,6.63
2018-07-14T22:12:55.505Z,6.57
2018-07-14T22:15:24.250Z,6.43
2018-07-14T22:17:53.527Z,6.53
2018-07-14T22:20:28.915Z,6.13
2018-07-14T22:22:57.679Z,6.80
2018-07-14T22:25:26.176Z,5.90
2018-07-14T22:27:54.612Z,6.57
2018-07-14T22:30:23.517Z,6.87
2018-07-14T22:32:51.883Z,6.80
2018-07-14T22:35:20.481Z,6.30
2018-07-14T22:37:48.896Z,6.13
2018-07-14T22:40:17.426Z,6.30
2018-07-14T22:42:46.863Z,6.30
2018-07-14T22:45:15.954Z,6.37
2018-07-14T22:47:44.848Z,6.40
2018-07-14T22:50:13.331Z,6.30
2018-07-14T22:53:12.585Z,7.00
2018-07-14T22:55:40.913Z,6.00
2018-07-14T22:58:09.549Z,6.37
2018-07-14T23:00:38.367Z,6.20
2018-07-14T23:03:07.247Z,5.87
2018-07-14T23:05:35.677Z,6.40
2018-07-14T23:08:04.359Z,5.90
2018-07-14T23:10:32.824Z,8.30
2018-07-14T23:13:01.691Z,8.00
2018-07-14T23:15:30.455Z,6.73
2018-07-14T23:17:58.947Z,6.40
2018-07-14T23:20:27.379Z,6.03
2018-07-14T23:22:56.378Z,6.40
2018-07-14T23:25:25.096Z,6.17
2018-07-14T23:27:53.640Z,6.43
2018-07-14T23:30:22.122Z,6.13
2018-07-14T23:32:50.693Z,6.23
2018-07-14T23:35:19.136Z,5.90
2018-07-14T23:37:47.990Z,6.13
2018-07-14T23:40:16.399Z,6.17
2018-07-14T23:42:45.517Z,6.27
2018-07-14T23:45:13.961Z,6.67
2018-07-14T23:47:42.479Z,5.83
2018-07-14T23:50:10.978Z,6.37
2018-07-14T23:52:39.431Z,6.20
2018-07-14T23:55:08.125Z,6.10
2018-07-14T23:57:37.048Z,6.13
